Piper Inness — WDC3984 — position and weather

sailwx.info

Track history (hours):
 
Tides and Currents Weather Stations Pressure Air Temp Water Temp Dewpoint Dewpoint Depression Visibility Wind Speed Wind Dir Waves Ship Positions

Piper Inness

Owner: Foss Maritime Co, Seattle, WA. More information available from US FCC via Universal Licensing System and Coast Guard Vessel Documentation Center.

Last reported at 2017-Jan-20 05:31 UTC. Time now 2017-Jan-23 17:03 UTC.
Position N 33°20' W 117°58'.

; draft 2 m.

Type: Other ship. MMSI: 367017440.

Date/timePositionNaut miles runAvg speedWind from/ knotsBaromVisibWave heightAir tempDewpointWater temp
2017-Jan-20 05:31N 33°20' W 117°58'1111.7
2017-Jan-20 04:33N 33°09' W 117°54'7 6.9
2017-Jan-20 03:33N 33°02' W 117°53'1 1.2
2017-Jan-20 02:31N 33°01' W 117°52'1 1.2
2017-Jan-20 01:24N 33°01' W 117°51'1 1.0
2017-Jan-20 00:33N 33°01' W 117°51'1 1.3
2017-Jan-19 23:34N 33°01' W 117°49'2 2.5
2017-Jan-19 22:34N 32°60' W 117°47'2 2.0
2017-Jan-19 21:32N 32°58' W 117°48'3 2.6
2017-Jan-19 20:34N 32°58' W 117°45'1 1.4
2017-Jan-19 19:34N 32°57' W 117°46'1 1.0
2017-Jan-19 18:33N 32°57' W 117°45'2 2.4
2017-Jan-19 17:33N 32°57' W 117°43'0 0.1
2017-Jan-19 16:33N 32°57' W 117°42'2 2.3
2017-Jan-19 15:34N 32°55' W 117°42'1 1.2
2017-Jan-19 14:34N 32°54' W 117°44'1 1.3
2017-Jan-19 13:34N 32°55' W 117°44'2 1.9
2017-Jan-19 12:34N 32°56' W 117°46'1 1.2
2017-Jan-19 11:34N 32°57' W 117°45'1 1.1
2017-Jan-19 10:34N 32°58' W 117°46'2 1.8
2017-Jan-19 09:34N 32°59' W 117°48'2 1.6
2017-Jan-19 08:34N 32°59' W 117°50'2 2.0
2017-Jan-19 07:34N 32°57' W 117°49'2 2.5
2017-Jan-19 06:34N 32°59' W 117°50'4 3.7
2017-Jan-19 05:33N 33°03' W 117°52'4 4.3
2017-Jan-19 04:34N 33°06' W 117°55'3 3.1
2017-Jan-19 03:33N 33°09' W 117°57'1 1.4
2017-Jan-19 02:33N 33°10' W 117°56'28 1.1
2017-Jan-18 01:33N 33°37' W 118°08'1716.9
2017-Jan-18 00:33N 33°21' W 118°00'1716.9
2017-Jan-17 23:33N 33°05' W 117°53'2 2.5
2017-Jan-17 22:34N 33°04' W 117°50'1 0.9
2017-Jan-17 21:34N 33°03' W 117°50'1 0.6
2017-Jan-17 20:34N 33°03' W 117°49'0 0.3
2017-Jan-17 19:34N 33°02' W 117°49'1 1.0
2017-Jan-17 18:34N 33°01' W 117°49'1 0.5
2017-Jan-17 17:33N 33°01' W 117°49'1 0.7
2017-Jan-17 16:33N 33°00' W 117°49'1 1.5
2017-Jan-17 15:34N 32°59' W 117°48'1 1.2
2017-Jan-17 14:33N 32°58' W 117°48'0 0.4
2017-Jan-17 13:33N 32°57' W 117°48'1 0.8
2017-Jan-17 12:34N 32°57' W 117°49'1 0.5
2017-Jan-17 11:34N 32°56' W 117°49'1 1.0
2017-Jan-17 10:34N 32°55' W 117°49'0 0.5
2017-Jan-17 09:33N 32°55' W 117°49'1 0.9
2017-Jan-17 08:34N 32°54' W 117°49'1 0.5
2017-Jan-17 07:33N 32°54' W 117°50'0 0.4
2017-Jan-17 06:34N 32°54' W 117°49'1 1.4
2017-Jan-17 05:34N 32°52' W 117°49'2 1.6
2017-Jan-17 04:33N 32°51' W 117°48'4 4.2
2017-Jan-17 03:33N 32°48' W 117°45'5 4.6
2017-Jan-17 02:34N 32°44' W 117°43'3 2.7
2017-Jan-17 01:33N 32°41' W 117°41'2 1.6
2017-Jan-17 00:33N 32°40' W 117°40'4 4.4
2017-Jan-16 23:33N 32°44' W 117°43'1717.1
2017-Jan-16 22:33N 32°58' W 117°53'1313.3
2017-Jan-16 21:34N 33°10' W 118°00'1716.7
2017-Jan-16 20:34N 33°27' W 118°03'20 0.6
2017-Jan-15 09:33N 33°45' W 118°13'0 0.0
2017-Jan-15 08:33N 33°45' W 118°13'0 0.0
2017-Jan-15 07:33N 33°45' W 118°13'0 0.0
2017-Jan-15 06:33N 33°45' W 118°13'0 0.0
2017-Jan-15 05:33N 33°45' W 118°13'2 2.0
2017-Jan-15 04:19N 33°43' W 118°11'2 2.9
2017-Jan-15 03:30N 33°45' W 118°13'0 0.1
2017-Jan-15 02:33N 33°45' W 118°13'2 1.8
2017-Jan-15 01:33N 33°43' W 118°14'0 0.4
2017-Jan-15 00:33N 33°43' W 118°13'0 0.3
2017-Jan-14 23:32N 33°44' W 118°13'0 0.1
2017-Jan-14 22:33N 33°44' W 118°13'0 0.5
2017-Jan-14 21:33N 33°44' W 118°14'1 1.4
2017-Jan-14 20:33N 33°45' W 118°13'1 1.4
2017-Jan-14 19:33N 33°46' W 118°13'0 0.0
2017-Jan-14 18:33N 33°46' W 118°13'0 0.0
2017-Jan-14 17:33N 33°46' W 118°13'  
2017-Jan-11 13:30N 33°20' W 117°59'1616.5
2017-Jan-11 12:33N 33°06' W 117°52'1 1.0
2017-Jan-11 11:33N 33°05' W 117°52'2 2.0
2017-Jan-11 10:33N 33°04' W 117°51'1 0.5
2017-Jan-11 09:33N 33°03' W 117°50'1 0.6
2017-Jan-11 08:33N 33°03' W 117°51'2 1.9
2017-Jan-11 07:33N 33°02' W 117°49'1 0.9
2017-Jan-11 06:33N 33°02' W 117°48'1 1.2
2017-Jan-11 05:33N 33°01' W 117°47'0 0.2
2017-Jan-11 04:33N 33°01' W 117°47'2 2.1
2017-Jan-11 03:33N 33°01' W 117°44'0 0.3
2017-Jan-11 02:33N 33°01' W 117°44'3 2.7
2017-Jan-11 01:33N 32°59' W 117°42'3 2.7
2017-Jan-11 00:33N 32°57' W 117°43'2 2.4
2017-Jan-10 23:33N 32°57' W 117°46'1 1.4
2017-Jan-10 22:33N 32°57' W 117°47'1 1.4
2017-Jan-10 21:33N 32°58' W 117°49'0 0.2
2017-Jan-10 20:33N 32°58' W 117°49'1 0.7
2017-Jan-10 19:33N 32°59' W 117°49'0 0.3
2017-Jan-10 18:33N 32°58' W 117°50'0 0.5
2017-Jan-10 17:33N 32°59' W 117°50'3 3.2
2017-Jan-10 16:33N 33°02' W 117°52'4 4.5
2017-Jan-10 15:33N 33°05' W 117°55'3 3.4
2017-Jan-10 14:33N 33°08' W 117°57'4 4.3
2017-Jan-10 13:33N 33°11' W 118°01'2 2.1
2017-Jan-10 12:34N 33°12' W 117°59'1817.5
2017-Jan-10 11:33N 33°29' W 118°04'  
Track history (hours):
 
Tides and Currents Weather Stations Pressure Air Temp Water Temp Dewpoint Dewpoint Depression Visibility Wind Speed Wind Dir Waves Ship Positions

Piper Inness

Owner: Foss Maritime Co, Seattle, WA. More information available from US FCC via Universal Licensing System and Coast Guard Vessel Documentation Center.

Last reported at 2017-Jan-20 05:31 UTC. Time now 2017-Jan-23 17:03 UTC.
Position N 33°20' W 117°58'.

; draft 2 m.

Type: Other ship. MMSI: 367017440.

Date/timePositionNaut miles runAvg speedWind from/ knotsBaromVisibWave heightAir tempDewpointWater temp
2017-Jan-20 05:31N 33°20' W 117°58'1111.7
2017-Jan-20 04:33N 33°09' W 117°54'7 6.9
2017-Jan-20 03:33N 33°02' W 117°53'1 1.2
2017-Jan-20 02:31N 33°01' W 117°52'1 1.2
2017-Jan-20 01:24N 33°01' W 117°51'1 1.0
2017-Jan-20 00:33N 33°01' W 117°51'1 1.3
2017-Jan-19 23:34N 33°01' W 117°49'2 2.5
2017-Jan-19 22:34N 32°60' W 117°47'2 2.0
2017-Jan-19 21:32N 32°58' W 117°48'3 2.6
2017-Jan-19 20:34N 32°58' W 117°45'1 1.4
2017-Jan-19 19:34N 32°57' W 117°46'1 1.0
2017-Jan-19 18:33N 32°57' W 117°45'2 2.4
2017-Jan-19 17:33N 32°57' W 117°43'0 0.1
2017-Jan-19 16:33N 32°57' W 117°42'2 2.3
2017-Jan-19 15:34N 32°55' W 117°42'1 1.2
2017-Jan-19 14:34N 32°54' W 117°44'1 1.3
2017-Jan-19 13:34N 32°55' W 117°44'2 1.9
2017-Jan-19 12:34N 32°56' W 117°46'1 1.2
2017-Jan-19 11:34N 32°57' W 117°45'1 1.1
2017-Jan-19 10:34N 32°58' W 117°46'2 1.8
2017-Jan-19 09:34N 32°59' W 117°48'2 1.6
2017-Jan-19 08:34N 32°59' W 117°50'2 2.0
2017-Jan-19 07:34N 32°57' W 117°49'2 2.5
2017-Jan-19 06:34N 32°59' W 117°50'4 3.7
2017-Jan-19 05:33N 33°03' W 117°52'4 4.3
2017-Jan-19 04:34N 33°06' W 117°55'3 3.1
2017-Jan-19 03:33N 33°09' W 117°57'1 1.4
2017-Jan-19 02:33N 33°10' W 117°56'28 1.1
2017-Jan-18 01:33N 33°37' W 118°08'1716.9
2017-Jan-18 00:33N 33°21' W 118°00'1716.9
2017-Jan-17 23:33N 33°05' W 117°53'2 2.5
2017-Jan-17 22:34N 33°04' W 117°50'1 0.9
2017-Jan-17 21:34N 33°03' W 117°50'1 0.6
2017-Jan-17 20:34N 33°03' W 117°49'0 0.3
2017-Jan-17 19:34N 33°02' W 117°49'1 1.0
2017-Jan-17 18:34N 33°01' W 117°49'1 0.5
2017-Jan-17 17:33N 33°01' W 117°49'1 0.7
2017-Jan-17 16:33N 33°00' W 117°49'1 1.5
2017-Jan-17 15:34N 32°59' W 117°48'1 1.2
2017-Jan-17 14:33N 32°58' W 117°48'0 0.4
2017-Jan-17 13:33N 32°57' W 117°48'1 0.8
2017-Jan-17 12:34N 32°57' W 117°49'1 0.5
2017-Jan-17 11:34N 32°56' W 117°49'1 1.0
2017-Jan-17 10:34N 32°55' W 117°49'0 0.5
2017-Jan-17 09:33N 32°55' W 117°49'1 0.9
2017-Jan-17 08:34N 32°54' W 117°49'1 0.5
2017-Jan-17 07:33N 32°54' W 117°50'0 0.4
2017-Jan-17 06:34N 32°54' W 117°49'1 1.4
2017-Jan-17 05:34N 32°52' W 117°49'2 1.6
2017-Jan-17 04:33N 32°51' W 117°48'4 4.2
2017-Jan-17 03:33N 32°48' W 117°45'5 4.6
2017-Jan-17 02:34N 32°44' W 117°43'3 2.7
2017-Jan-17 01:33N 32°41' W 117°41'2 1.6
2017-Jan-17 00:33N 32°40' W 117°40'4 4.4
2017-Jan-16 23:33N 32°44' W 117°43'1717.1
2017-Jan-16 22:33N 32°58' W 117°53'1313.3
2017-Jan-16 21:34N 33°10' W 118°00'1716.7
2017-Jan-16 20:34N 33°27' W 118°03'20 0.6
2017-Jan-15 09:33N 33°45' W 118°13'0 0.0
2017-Jan-15 08:33N 33°45' W 118°13'0 0.0
2017-Jan-15 07:33N 33°45' W 118°13'0 0.0
2017-Jan-15 06:33N 33°45' W 118°13'0 0.0
2017-Jan-15 05:33N 33°45' W 118°13'2 2.0
2017-Jan-15 04:19N 33°43' W 118°11'2 2.9
2017-Jan-15 03:30N 33°45' W 118°13'0 0.1
2017-Jan-15 02:33N 33°45' W 118°13'2 1.8
2017-Jan-15 01:33N 33°43' W 118°14'0 0.4
2017-Jan-15 00:33N 33°43' W 118°13'0 0.3
2017-Jan-14 23:32N 33°44' W 118°13'0 0.1
2017-Jan-14 22:33N 33°44' W 118°13'0 0.5
2017-Jan-14 21:33N 33°44' W 118°14'1 1.4
2017-Jan-14 20:33N 33°45' W 118°13'1 1.4
2017-Jan-14 19:33N 33°46' W 118°13'0 0.0
2017-Jan-14 18:33N 33°46' W 118°13'0 0.0
2017-Jan-14 17:33N 33°46' W 118°13'  
2017-Jan-11 13:30N 33°20' W 117°59'1616.5
2017-Jan-11 12:33N 33°06' W 117°52'1 1.0
2017-Jan-11 11:33N 33°05' W 117°52'2 2.0
2017-Jan-11 10:33N 33°04' W 117°51'1 0.5
2017-Jan-11 09:33N 33°03' W 117°50'1 0.6
2017-Jan-11 08:33N 33°03' W 117°51'2 1.9
2017-Jan-11 07:33N 33°02' W 117°49'1 0.9
2017-Jan-11 06:33N 33°02' W 117°48'1 1.2
2017-Jan-11 05:33N 33°01' W 117°47'0 0.2
2017-Jan-11 04:33N 33°01' W 117°47'2 2.1
2017-Jan-11 03:33N 33°01' W 117°44'0 0.3
2017-Jan-11 02:33N 33°01' W 117°44'3 2.7
2017-Jan-11 01:33N 32°59' W 117°42'3 2.7
2017-Jan-11 00:33N 32°57' W 117°43'2 2.4
2017-Jan-10 23:33N 32°57' W 117°46'1 1.4
2017-Jan-10 22:33N 32°57' W 117°47'1 1.4
2017-Jan-10 21:33N 32°58' W 117°49'0 0.2
2017-Jan-10 20:33N 32°58' W 117°49'1 0.7
2017-Jan-10 19:33N 32°59' W 117°49'0 0.3
2017-Jan-10 18:33N 32°58' W 117°50'0 0.5
2017-Jan-10 17:33N 32°59' W 117°50'3 3.2
2017-Jan-10 16:33N 33°02' W 117°52'4 4.5
2017-Jan-10 15:33N 33°05' W 117°55'3 3.4
2017-Jan-10 14:33N 33°08' W 117°57'4 4.3
2017-Jan-10 13:33N 33°11' W 118°01'2 2.1
2017-Jan-10 12:34N 33°12' W 117°59'1817.5
2017-Jan-10 11:33N 33°29' W 118°04'  

Dump ship's entire track history